sensor_id;sensor_type;location;lat;lon;timestamp;P1;durP1;ratioP1;P2;durP2;ratioP2
41829;SDS011;38614;43.472;23.936;2023-06-10T00:02:13;3.47;;;2.00;;
41829;SDS011;38614;43.472;23.936;2023-06-10T00:05:02;9.50;;;1.52;;
41829;SDS011;38614;43.472;23.936;2023-06-10T00:07:50;9.43;;;1.90;;
41829;SDS011;38614;43.472;23.936;2023-06-10T00:10:38;8.40;;;1.80;;
41829;SDS011;38614;43.472;23.936;2023-06-10T00:13:26;4.70;;;1.98;;
41829;SDS011;38614;43.472;23.936;2023-06-10T00:16:14;3.90;;;2.13;;
41829;SDS011;38614;43.472;23.936;2023-06-10T00:19:02;7.63;;;2.42;;
41829;SDS011;38614;43.472;23.936;2023-06-10T00:21:51;3.47;;;2.67;;
41829;SDS011;38614;43.472;23.936;2023-06-10T00:24:39;7.75;;;2.50;;
41829;SDS011;38614;43.472;23.936;2023-06-10T00:27:27;3.28;;;1.77;;
41829;SDS011;38614;43.472;23.936;2023-06-10T00:30:20;7.85;;;1.85;;
41829;SDS011;38614;43.472;23.936;2023-06-10T00:33:08;3.65;;;1.50;;
41829;SDS011;38614;43.472;23.936;2023-06-10T00:35:57;5.38;;;2.58;;
41829;SDS011;38614;43.472;23.936;2023-06-10T00:38:44;2.85;;;2.13;;
41829;SDS011;38614;43.472;23.936;2023-06-10T00:41:32;3.80;;;2.35;;
41829;SDS011;38614;43.472;23.936;2023-06-10T00:44:21;6.80;;;1.48;;
41829;SDS011;38614;43.472;23.936;2023-06-10T00:47:09;5.78;;;2.28;;
41829;SDS011;38614;43.472;23.936;2023-06-10T00:49:57;2.53;;;2.10;;
41829;SDS011;38614;43.472;23.936;2023-06-10T00:52:45;6.22;;;3.20;;
41829;SDS011;38614;43.472;23.936;2023-06-10T00:55:35;2.15;;;1.95;;
41829;SDS011;38614;43.472;23.936;2023-06-10T00:58:24;6.68;;;1.95;;
41829;SDS011;38614;43.472;23.936;2023-06-10T01:01:13;6.55;;;1.92;;
41829;SDS011;38614;43.472;23.936;2023-06-10T01:04:00;2.90;;;2.42;;
41829;SDS011;38614;43.472;23.936;2023-06-10T01:13:00;4.57;;;1.88;;
41829;SDS011;38614;43.472;23.936;2023-06-10T01:15:54;5.95;;;2.05;;
41829;SDS011;38614;43.472;23.936;2023-06-10T01:18:43;2.58;;;2.38;;
41829;SDS011;38614;43.472;23.936;2023-06-10T01:21:31;4.22;;;2.08;;
41829;SDS011;38614;43.472;23.936;2023-06-10T01:24:21;3.40;;;1.67;;
41829;SDS011;38614;43.472;23.936;2023-06-10T01:27:10;3.38;;;1.95;;
41829;SDS011;38614;43.472;23.936;2023-06-10T01:30:06;4.97;;;1.75;;
41829;SDS011;38614;43.472;23.936;2023-06-10T01:32:59;3.88;;;2.15;;
41829;SDS011;38614;43.472;23.936;2023-06-10T01:35:53;4.90;;;2.03;;
41829;SDS011;38614;43.472;23.936;2023-06-10T01:38:45;1.70;;;1.60;;
41829;SDS011;38614;43.472;23.936;2023-06-10T01:41:34;4.63;;;2.15;;
41829;SDS011;38614;43.472;23.936;2023-06-10T01:44:24;4.65;;;1.95;;
41829;SDS011;38614;43.472;23.936;2023-06-10T01:47:12;3.53;;;1.63;;
41829;SDS011;38614;43.472;23.936;2023-06-10T01:50:00;7.05;;;2.08;;
41829;SDS011;38614;43.472;23.936;2023-06-10T01:52:48;3.30;;;1.92;;
41829;SDS011;38614;43.472;23.936;2023-06-10T01:55:36;3.20;;;1.42;;
41829;SDS011;38614;43.472;23.936;2023-06-10T01:58:24;3.92;;;1.83;;
41829;SDS011;38614;43.472;23.936;2023-06-10T02:01:12;8.55;;;2.80;;
41829;SDS011;38614;43.472;23.936;2023-06-10T02:03:59;6.65;;;2.35;;
41829;SDS011;38614;43.472;23.936;2023-06-10T02:06:48;5.95;;;1.83;;
41829;SDS011;38614;43.472;23.936;2023-06-10T02:09:38;6.55;;;1.92;;
41829;SDS011;38614;43.472;23.936;2023-06-10T02:12:26;3.67;;;1.70;;
41829;SDS011;38614;43.472;23.936;2023-06-10T02:15:14;3.22;;;1.60;;
41829;SDS011;38614;43.472;23.936;2023-06-10T02:18:02;7.80;;;2.35;;
41829;SDS011;38614;43.472;23.936;2023-06-10T02:20:50;6.85;;;2.10;;
41829;SDS011;38614;43.472;23.936;2023-06-10T02:23:38;5.35;;;1.73;;
41829;SDS011;38614;43.472;23.936;2023-06-10T02:26:26;7.28;;;2.17;;
41829;SDS011;38614;43.472;23.936;2023-06-10T02:29:16;9.40;;;2.88;;
41829;SDS011;38614;43.472;23.936;2023-06-10T02:32:04;5.45;;;1.67;;
41829;SDS011;38614;43.472;23.936;2023-06-10T02:34:57;2.88;;;2.33;;
41829;SDS011;38614;43.472;23.936;2023-06-10T02:37:45;4.97;;;1.73;;
41829;SDS011;38614;43.472;23.936;2023-06-10T02:40:32;1.70;;;1.35;;
41829;SDS011;38614;43.472;23.936;2023-06-10T02:43:23;4.57;;;1.67;;
41829;SDS011;38614;43.472;23.936;2023-06-10T02:46:11;5.95;;;1.42;;
41829;SDS011;38614;43.472;23.936;2023-06-10T02:49:00;3.10;;;2.00;;
41829;SDS011;38614;43.472;23.936;2023-06-10T02:51:49;3.13;;;2.10;;
41829;SDS011;38614;43.472;23.936;2023-06-10T02:54:41;5.50;;;1.83;;
41829;SDS011;38614;43.472;23.936;2023-06-10T02:57:30;1.50;;;1.40;;
41829;SDS011;38614;43.472;23.936;2023-06-10T03:00:19;5.93;;;1.98;;
41829;SDS011;38614;43.472;23.936;2023-06-10T03:03:09;2.85;;;1.85;;
41829;SDS011;38614;43.472;23.936;2023-06-10T03:06:18;2.78;;;2.00;;
41829;SDS011;38614;43.472;23.936;2023-06-10T03:09:07;5.95;;;2.03;;
41829;SDS011;38614;43.472;23.936;2023-06-10T03:11:55;7.03;;;2.53;;
41829;SDS011;38614;43.472;23.936;2023-06-10T03:14:46;3.22;;;2.05;;
41829;SDS011;38614;43.472;23.936;2023-06-10T03:17:35;3.67;;;1.80;;
41829;SDS011;38614;43.472;23.936;2023-06-10T03:20:23;4.15;;;1.85;;
41829;SDS011;38614;43.472;23.936;2023-06-10T03:23:12;10.38;;;2.42;;
41829;SDS011;38614;43.472;23.936;2023-06-10T03:26:00;3.60;;;2.47;;
41829;SDS011;38614;43.472;23.936;2023-06-10T03:28:51;3.53;;;2.35;;
41829;SDS011;38614;43.472;23.936;2023-06-10T03:31:40;4.05;;;2.47;;
41829;SDS011;38614;43.472;23.936;2023-06-10T03:34:28;8.77;;;1.98;;
41829;SDS011;38614;43.472;23.936;2023-06-10T03:37:17;1.73;;;1.38;;
41829;SDS011;38614;43.472;23.936;2023-06-10T03:40:07;4.22;;;2.47;;
41829;SDS011;38614;43.472;23.936;2023-06-10T03:42:58;2.72;;;2.15;;
41829;SDS011;38614;43.472;23.936;2023-06-10T03:45:47;10.55;;;1.85;;
41829;SDS011;38614;43.472;23.936;2023-06-10T03:48:36;3.65;;;2.40;;
41829;SDS011;38614;43.472;23.936;2023-06-10T03:51:24;1.67;;;1.48;;
41829;SDS011;38614;43.472;23.936;2023-06-10T03:54:12;2.85;;;2.17;;
41829;SDS011;38614;43.472;23.936;2023-06-10T03:57:00;2.65;;;1.58;;
41829;SDS011;38614;43.472;23.936;2023-06-10T03:59:49;7.97;;;2.03;;
41829;SDS011;38614;43.472;23.936;2023-06-10T04:02:37;1.80;;;1.70;;
41829;SDS011;38614;43.472;23.936;2023-06-10T04:05:39;1.75;;;1.52;;
41829;SDS011;38614;43.472;23.936;2023-06-10T04:08:28;4.13;;;2.50;;
41829;SDS011;38614;43.472;23.936;2023-06-10T04:11:18;4.30;;;2.83;;
41829;SDS011;38614;43.472;23.936;2023-06-10T04:14:06;6.93;;;2.92;;
41829;SDS011;38614;43.472;23.936;2023-06-10T04:16:55;2.65;;;2.38;;
41829;SDS011;38614;43.472;23.936;2023-06-10T04:19:43;3.30;;;2.35;;
41829;SDS011;38614;43.472;23.936;2023-06-10T04:22:31;6.88;;;2.72;;
41829;SDS011;38614;43.472;23.936;2023-06-10T04:25:19;4.82;;;2.50;;
41829;SDS011;38614;43.472;23.936;2023-06-10T04:28:09;2.45;;;2.33;;
41829;SDS011;38614;43.472;23.936;2023-06-10T04:30:57;7.05;;;2.67;;
41829;SDS011;38614;43.472;23.936;2023-06-10T04:33:45;3.75;;;2.30;;
41829;SDS011;38614;43.472;23.936;2023-06-10T04:36:34;2.55;;;1.95;;
41829;SDS011;38614;43.472;23.936;2023-06-10T04:39:22;2.92;;;1.92;;
41829;SDS011;38614;43.472;23.936;2023-06-10T04:42:11;3.78;;;2.55;;
41829;SDS011;38614;43.472;23.936;2023-06-10T04:44:59;7.82;;;2.05;;
41829;SDS011;38614;43.472;23.936;2023-06-10T04:47:47;5.13;;;2.05;;
41829;SDS011;38614;43.472;23.936;2023-06-10T04:50:35;2.83;;;2.20;;
41829;SDS011;38614;43.472;23.936;2023-06-10T04:53:23;6.10;;;2.35;;
41829;SDS011;38614;43.472;23.936;2023-06-10T04:56:13;5.43;;;1.92;;
41829;SDS011;38614;43.472;23.936;2023-06-10T04:59:02;4.85;;;2.60;;
41829;SDS011;38614;43.472;23.936;2023-06-10T05:01:50;3.05;;;2.33;;
41829;SDS011;38614;43.472;23.936;2023-06-10T05:04:38;2.83;;;2.15;;
41829;SDS011;38614;43.472;23.936;2023-06-10T05:07:26;2.42;;;2.22;;
41829;SDS011;38614;43.472;23.936;2023-06-10T05:10:14;4.80;;;2.35;;
41829;SDS011;38614;43.472;23.936;2023-06-10T05:13:02;9.32;;;2.88;;
41829;SDS011;38614;43.472;23.936;2023-06-10T05:15:50;3.65;;;2.33;;
41829;SDS011;38614;43.472;23.936;2023-06-10T05:18:38;2.83;;;2.10;;
41829;SDS011;38614;43.472;23.936;2023-06-10T05:21:26;7.25;;;2.35;;
41829;SDS011;38614;43.472;23.936;2023-06-10T05:24:13;5.68;;;2.60;;
41829;SDS011;38614;43.472;23.936;2023-06-10T05:27:01;4.30;;;2.47;;
41829;SDS011;38614;43.472;23.936;2023-06-10T05:29:50;3.28;;;2.92;;
41829;SDS011;38614;43.472;23.936;2023-06-10T05:32:38;3.45;;;1.95;;
41829;SDS011;38614;43.472;23.936;2023-06-10T05:35:26;5.72;;;2.08;;
41829;SDS011;38614;43.472;23.936;2023-06-10T05:38:14;3.35;;;2.30;;
41829;SDS011;38614;43.472;23.936;2023-06-10T05:41:05;5.82;;;2.28;;
41829;SDS011;38614;43.472;23.936;2023-06-10T05:43:53;2.42;;;1.35;;
41829;SDS011;38614;43.472;23.936;2023-06-10T05:46:40;4.63;;;2.20;;
41829;SDS011;38614;43.472;23.936;2023-06-10T05:49:28;5.03;;;1.95;;
41829;SDS011;38614;43.472;23.936;2023-06-10T05:52:16;7.85;;;1.90;;
41829;SDS011;38614;43.472;23.936;2023-06-10T05:55:04;5.63;;;1.63;;
41829;SDS011;38614;43.472;23.936;2023-06-10T05:57:58;1.70;;;1.58;;
41829;SDS011;38614;43.472;23.936;2023-06-10T06:00:47;5.03;;;1.98;;
41829;SDS011;38614;43.472;23.936;2023-06-10T06:03:35;5.55;;;1.48;;
41829;SDS011;38614;43.472;23.936;2023-06-10T06:06:23;1.92;;;1.77;;
41829;SDS011;38614;43.472;23.936;2023-06-10T06:09:11;1.90;;;1.30;;
41829;SDS011;38614;43.472;23.936;2023-06-10T06:11:59;7.70;;;2.22;;
41829;SDS011;38614;43.472;23.936;2023-06-10T06:14:49;4.13;;;1.70;;
41829;SDS011;38614;43.472;23.936;2023-06-10T06:17:37;7.10;;;1.50;;
41829;SDS011;38614;43.472;23.936;2023-06-10T06:20:25;5.85;;;2.40;;
41829;SDS011;38614;43.472;23.936;2023-06-10T06:23:13;5.45;;;2.35;;
41829;SDS011;38614;43.472;23.936;2023-06-10T06:26:01;1.65;;;1.50;;
41829;SDS011;38614;43.472;23.936;2023-06-10T06:28:49;3.00;;;1.20;;
41829;SDS011;38614;43.472;23.936;2023-06-10T06:31:39;2.63;;;2.13;;
41829;SDS011;38614;43.472;23.936;2023-06-10T06:34:27;3.90;;;1.60;;
41829;SDS011;38614;43.472;23.936;2023-06-10T06:37:15;4.25;;;1.90;;
41829;SDS011;38614;43.472;23.936;2023-06-10T06:40:05;3.00;;;2.08;;
41829;SDS011;38614;43.472;23.936;2023-06-10T06:42:53;5.10;;;1.33;;
41829;SDS011;38614;43.472;23.936;2023-06-10T06:46:01;4.90;;;1.73;;
41829;SDS011;38614;43.472;23.936;2023-06-10T06:48:49;4.85;;;2.03;;
41829;SDS011;38614;43.472;23.936;2023-06-10T06:51:37;2.85;;;1.55;;
41829;SDS011;38614;43.472;23.936;2023-06-10T06:54:25;1.55;;;1.40;;
41829;SDS011;38614;43.472;23.936;2023-06-10T06:57:12;6.45;;;2.33;;
41829;SDS011;38614;43.472;23.936;2023-06-10T07:00:00;2.70;;;1.77;;
41829;SDS011;38614;43.472;23.936;2023-06-10T07:02:48;1.77;;;1.67;;
41829;SDS011;38614;43.472;23.936;2023-06-10T07:05:37;2.50;;;2.20;;
41829;SDS011;38614;43.472;23.936;2023-06-10T07:08:26;2.25;;;1.58;;
41829;SDS011;38614;43.472;23.936;2023-06-10T07:11:14;2.70;;;1.60;;
41829;SDS011;38614;43.472;23.936;2023-06-10T07:14:01;2.20;;;1.15;;
41829;SDS011;38614;43.472;23.936;2023-06-10T07:16:49;4.05;;;1.90;;
41829;SDS011;38614;43.472;23.936;2023-06-10T07:19:37;6.60;;;1.75;;
41829;SDS011;38614;43.472;23.936;2023-06-10T07:22:25;7.20;;;1.38;;
41829;SDS011;38614;43.472;23.936;2023-06-10T07:25:16;4.47;;;3.03;;
41829;SDS011;38614;43.472;23.936;2023-06-10T07:28:03;1.88;;;1.70;;
41829;SDS011;38614;43.472;23.936;2023-06-10T07:30:51;2.88;;;1.90;;
41829;SDS011;38614;43.472;23.936;2023-06-10T07:33:39;5.10;;;1.83;;
41829;SDS011;38614;43.472;23.936;2023-06-10T07:36:27;2.15;;;1.90;;
41829;SDS011;38614;43.472;23.936;2023-06-10T07:39:15;2.47;;;2.00;;
41829;SDS011;38614;43.472;23.936;2023-06-10T07:42:03;5.93;;;2.28;;
41829;SDS011;38614;43.472;23.936;2023-06-10T07:44:51;2.15;;;1.95;;
41829;SDS011;38614;43.472;23.936;2023-06-10T07:47:42;7.45;;;2.38;;
41829;SDS011;38614;43.472;23.936;2023-06-10T07:50:30;4.18;;;1.90;;
41829;SDS011;38614;43.472;23.936;2023-06-10T07:53:21;5.10;;;1.70;;
41829;SDS011;38614;43.472;23.936;2023-06-10T07:56:08;2.63;;;1.42;;
41829;SDS011;38614;43.472;23.936;2023-06-10T07:58:56;2.35;;;1.85;;
41829;SDS011;38614;43.472;23.936;2023-06-10T08:01:44;6.18;;;1.77;;
41829;SDS011;38614;43.472;23.936;2023-06-10T08:04:32;3.58;;;1.15;;
41829;SDS011;38614;43.472;23.936;2023-06-10T08:07:22;1.95;;;0.85;;
41829;SDS011;38614;43.472;23.936;2023-06-10T08:10:10;3.05;;;1.45;;
41829;SDS011;38614;43.472;23.936;2023-06-10T08:13:01;2.05;;;1.38;;
41829;SDS011;38614;43.472;23.936;2023-06-10T08:15:49;3.90;;;1.60;;
41829;SDS011;38614;43.472;23.936;2023-06-10T08:18:38;2.85;;;1.55;;
41829;SDS011;38614;43.472;23.936;2023-06-10T08:21:25;5.88;;;1.50;;
41829;SDS011;38614;43.472;23.936;2023-06-10T08:24:16;1.77;;;1.47;;
41829;SDS011;38614;43.472;23.936;2023-06-10T08:27:06;2.47;;;1.80;;
41829;SDS011;38614;43.472;23.936;2023-06-10T08:29:54;15.05;;;2.33;;
41829;SDS011;38614;43.472;23.936;2023-06-10T08:32:46;4.35;;;1.42;;
41829;SDS011;38614;43.472;23.936;2023-06-10T08:35:35;3.95;;;1.70;;
41829;SDS011;38614;43.472;23.936;2023-06-10T08:38:23;2.47;;;1.95;;
41829;SDS011;38614;43.472;23.936;2023-06-10T08:41:12;1.77;;;1.63;;
41829;SDS011;38614;43.472;23.936;2023-06-10T08:44:16;3.75;;;2.28;;
41829;SDS011;38614;43.472;23.936;2023-06-10T08:47:13;4.03;;;2.10;;
41829;SDS011;38614;43.472;23.936;2023-06-10T08:50:05;2.35;;;1.38;;
41829;SDS011;38614;43.472;23.936;2023-06-10T08:52:57;2.85;;;1.70;;
41829;SDS011;38614;43.472;23.936;2023-06-10T08:55:46;2.25;;;1.60;;
41829;SDS011;38614;43.472;23.936;2023-06-10T08:58:47;4.13;;;1.65;;
41829;SDS011;38614;43.472;23.936;2023-06-10T09:01:38;2.28;;;1.77;;
41829;SDS011;38614;43.472;23.936;2023-06-10T09:04:26;7.90;;;1.48;;
41829;SDS011;38614;43.472;23.936;2023-06-10T09:07:16;4.00;;;1.67;;
41829;SDS011;38614;43.472;23.936;2023-06-10T09:10:05;3.92;;;1.75;;
41829;SDS011;38614;43.472;23.936;2023-06-10T09:12:55;2.97;;;1.65;;
41829;SDS011;38614;43.472;23.936;2023-06-10T09:15:43;3.92;;;1.88;;
41829;SDS011;38614;43.472;23.936;2023-06-10T09:18:32;4.13;;;1.67;;
41829;SDS011;38614;43.472;23.936;2023-06-10T09:21:22;7.43;;;3.05;;
41829;SDS011;38614;43.472;23.936;2023-06-10T09:24:10;31.05;;;10.45;;
41829;SDS011;38614;43.472;23.936;2023-06-10T09:27:05;46.63;;;13.90;;
41829;SDS011;38614;43.472;23.936;2023-06-10T09:29:54;24.13;;;7.45;;
41829;SDS011;38614;43.472;23.936;2023-06-10T09:32:42;6.38;;;3.40;;
41829;SDS011;38614;43.472;23.936;2023-06-10T09:35:30;25.10;;;10.57;;
41829;SDS011;38614;43.472;23.936;2023-06-10T09:38:19;4.40;;;2.70;;
41829;SDS011;38614;43.472;23.936;2023-06-10T09:41:09;3.58;;;2.10;;
41829;SDS011;38614;43.472;23.936;2023-06-10T09:43:56;2.08;;;1.42;;
41829;SDS011;38614;43.472;23.936;2023-06-10T09:46:45;4.07;;;1.45;;
41829;SDS011;38614;43.472;23.936;2023-06-10T09:49:36;3.92;;;1.90;;
41829;SDS011;38614;43.472;23.936;2023-06-10T09:52:25;2.90;;;1.67;;
41829;SDS011;38614;43.472;23.936;2023-06-10T09:55:15;3.33;;;1.52;;
41829;SDS011;38614;43.472;23.936;2023-06-10T09:58:03;4.47;;;1.75;;
41829;SDS011;38614;43.472;23.936;2023-06-10T10:00:52;2.67;;;1.92;;
41829;SDS011;38614;43.472;23.936;2023-06-10T10:03:44;1.75;;;1.45;;
41829;SDS011;38614;43.472;23.936;2023-06-10T10:06:37;2.83;;;1.30;;
41829;SDS011;38614;43.472;23.936;2023-06-10T10:09:32;4.72;;;1.48;;
41829;SDS011;38614;43.472;23.936;2023-06-10T10:12:25;4.72;;;1.23;;
41829;SDS011;38614;43.472;23.936;2023-06-10T10:15:16;1.92;;;1.52;;
41829;SDS011;38614;43.472;23.936;2023-06-10T10:18:09;3.17;;;1.13;;
41829;SDS011;38614;43.472;23.936;2023-06-10T10:21:00;3.13;;;1.48;;
41829;SDS011;38614;43.472;23.936;2023-06-10T10:26:55;6.15;;;1.80;;
41829;SDS011;38614;43.472;23.936;2023-06-10T10:29:49;1.90;;;0.80;;
41829;SDS011;38614;43.472;23.936;2023-06-10T10:33:16;2.45;;;0.57;;
41829;SDS011;38614;43.472;23.936;2023-06-10T10:35:57;5.53;;;1.00;;
41829;SDS011;38614;43.472;23.936;2023-06-10T10:38:45;1.58;;;1.17;;
41829;SDS011;38614;43.472;23.936;2023-06-10T10:41:39;2.40;;;1.00;;
41829;SDS011;38614;43.472;23.936;2023-06-10T10:44:27;3.65;;;1.02;;
41829;SDS011;38614;43.472;23.936;2023-06-10T10:47:16;2.65;;;1.30;;
41829;SDS011;38614;43.472;23.936;2023-06-10T10:50:18;15.23;;;1.35;;
41829;SDS011;38614;43.472;23.936;2023-06-10T10:53:07;10.10;;;1.40;;
41829;SDS011;38614;43.472;23.936;2023-06-10T10:55:59;3.75;;;1.30;;
41829;SDS011;38614;43.472;23.936;2023-06-10T10:59:04;2.58;;;0.85;;
41829;SDS011;38614;43.472;23.936;2023-06-10T11:01:53;2.75;;;1.17;;
41829;SDS011;38614;43.472;23.936;2023-06-10T11:04:44;1.00;;;0.80;;
41829;SDS011;38614;43.472;23.936;2023-06-10T11:07:34;2.58;;;1.02;;
41829;SDS011;38614;43.472;23.936;2023-06-10T11:10:33;2.92;;;1.10;;
41829;SDS011;38614;43.472;23.936;2023-06-10T11:13:25;1.27;;;0.80;;
41829;SDS011;38614;43.472;23.936;2023-06-10T11:16:19;8.38;;;1.33;;
41829;SDS011;38614;43.472;23.936;2023-06-10T11:21:58;6.32;;;0.75;;
41829;SDS011;38614;43.472;23.936;2023-06-10T11:24:49;4.82;;;1.15;;
41829;SDS011;38614;43.472;23.936;2023-06-10T11:27:41;4.10;;;0.77;;
41829;SDS011;38614;43.472;23.936;2023-06-10T11:30:29;2.13;;;1.20;;
41829;SDS011;38614;43.472;23.936;2023-06-10T11:33:22;2.88;;;0.95;;
41829;SDS011;38614;43.472;23.936;2023-06-10T11:36:11;6.85;;;1.98;;
41829;SDS011;38614;43.472;23.936;2023-06-10T11:39:04;1.25;;;0.95;;
41829;SDS011;38614;43.472;23.936;2023-06-10T11:41:53;6.57;;;0.95;;
41829;SDS011;38614;43.472;23.936;2023-06-10T11:44:47;29.38;;;2.55;;
41829;SDS011;38614;43.472;23.936;2023-06-10T11:47:39;1.42;;;0.90;;
41829;SDS011;38614;43.472;23.936;2023-06-10T11:50:30;2.03;;;0.80;;
41829;SDS011;38614;43.472;23.936;2023-06-10T11:53:19;2.75;;;0.70;;
41829;SDS011;38614;43.472;23.936;2023-06-10T11:56:07;4.13;;;0.90;;
41829;SDS011;38614;43.472;23.936;2023-06-10T11:58:58;2.30;;;0.85;;
41829;SDS011;38614;43.472;23.936;2023-06-10T12:01:51;4.72;;;0.80;;
41829;SDS011;38614;43.472;23.936;2023-06-10T12:04:39;3.88;;;1.02;;
41829;SDS011;38614;43.472;23.936;2023-06-10T12:07:27;4.47;;;0.70;;
41829;SDS011;38614;43.472;23.936;2023-06-10T12:10:15;4.30;;;0.98;;
41829;SDS011;38614;43.472;23.936;2023-06-10T12:13:13;2.17;;;0.80;;
41829;SDS011;38614;43.472;23.936;2023-06-10T12:16:11;1.25;;;0.60;;
41829;SDS011;38614;43.472;23.936;2023-06-10T12:19:04;1.52;;;0.57;;
41829;SDS011;38614;43.472;23.936;2023-06-10T12:21:53;0.93;;;0.47;;
41829;SDS011;38614;43.472;23.936;2023-06-10T12:25:05;1.45;;;1.00;;
41829;SDS011;38614;43.472;23.936;2023-06-10T12:27:55;1.55;;;0.73;;
41829;SDS011;38614;43.472;23.936;2023-06-10T12:30:44;4.75;;;1.02;;
41829;SDS011;38614;43.472;23.936;2023-06-10T12:33:32;6.85;;;0.93;;
41829;SDS011;38614;43.472;23.936;2023-06-10T12:36:20;5.15;;;0.90;;
41829;SDS011;38614;43.472;23.936;2023-06-10T12:39:12;4.35;;;0.60;;
41829;SDS011;38614;43.472;23.936;2023-06-10T12:42:00;1.30;;;0.57;;
41829;SDS011;38614;43.472;23.936;2023-06-10T12:44:52;4.88;;;1.00;;
41829;SDS011;38614;43.472;23.936;2023-06-10T12:47:41;2.70;;;0.85;;
41829;SDS011;38614;43.472;23.936;2023-06-10T12:50:29;3.83;;;0.70;;
41829;SDS011;38614;43.472;23.936;2023-06-10T12:53:18;3.75;;;0.70;;
41829;SDS011;38614;43.472;23.936;2023-06-10T12:56:09;1.13;;;0.70;;
41829;SDS011;38614;43.472;23.936;2023-06-10T12:58:57;1.33;;;0.75;;
41829;SDS011;38614;43.472;23.936;2023-06-10T13:01:51;1.08;;;0.47;;
41829;SDS011;38614;43.472;23.936;2023-06-10T13:04:40;0.63;;;0.45;;
41829;SDS011;38614;43.472;23.936;2023-06-10T13:07:27;1.00;;;0.73;;
41829;SDS011;38614;43.472;23.936;2023-06-10T13:10:17;1.98;;;0.82;;
41829;SDS011;38614;43.472;23.936;2023-06-10T13:13:08;0.82;;;0.82;;
41829;SDS011;38614;43.472;23.936;2023-06-10T13:15:57;2.60;;;0.98;;
41829;SDS011;38614;43.472;23.936;2023-06-10T13:18:45;2.17;;;1.30;;
41829;SDS011;38614;43.472;23.936;2023-06-10T13:21:33;2.55;;;1.10;;
41829;SDS011;38614;43.472;23.936;2023-06-10T13:24:21;3.63;;;0.75;;
41829;SDS011;38614;43.472;23.936;2023-06-10T13:27:09;7.25;;;1.85;;
41829;SDS011;38614;43.472;23.936;2023-06-10T13:29:57;2.40;;;0.55;;
41829;SDS011;38614;43.472;23.936;2023-06-10T13:32:44;2.60;;;0.73;;
41829;SDS011;38614;43.472;23.936;2023-06-10T13:35:32;5.25;;;0.50;;
41829;SDS011;38614;43.472;23.936;2023-06-10T13:38:20;1.40;;;0.80;;
41829;SDS011;38614;43.472;23.936;2023-06-10T13:41:08;0.98;;;0.55;;
41829;SDS011;38614;43.472;23.936;2023-06-10T13:43:57;4.18;;;0.57;;
41829;SDS011;38614;43.472;23.936;2023-06-10T13:46:44;2.80;;;0.82;;
41829;SDS011;38614;43.472;23.936;2023-06-10T13:49:38;0.70;;;0.50;;
41829;SDS011;38614;43.472;23.936;2023-06-10T13:52:27;6.10;;;1.55;;
41829;SDS011;38614;43.472;23.936;2023-06-10T13:55:15;1.83;;;0.47;;
41829;SDS011;38614;43.472;23.936;2023-06-10T13:58:07;2.88;;;0.68;;
41829;SDS011;38614;43.472;23.936;2023-06-10T14:00:55;2.15;;;0.90;;
41829;SDS011;38614;43.472;23.936;2023-06-10T14:03:43;1.65;;;0.95;;
41829;SDS011;38614;43.472;23.936;2023-06-10T14:06:31;5.55;;;1.15;;
41829;SDS011;38614;43.472;23.936;2023-06-10T14:09:19;2.95;;;0.70;;
41829;SDS011;38614;43.472;23.936;2023-06-10T14:12:07;2.20;;;1.10;;
41829;SDS011;38614;43.472;23.936;2023-06-10T14:14:56;2.42;;;1.17;;
41829;SDS011;38614;43.472;23.936;2023-06-10T14:17:44;1.45;;;0.98;;
41829;SDS011;38614;43.472;23.936;2023-06-10T14:20:32;2.05;;;0.90;;
41829;SDS011;38614;43.472;23.936;2023-06-10T14:23:19;2.45;;;1.02;;
41829;SDS011;38614;43.472;23.936;2023-06-10T14:26:07;4.32;;;0.82;;
41829;SDS011;38614;43.472;23.936;2023-06-10T14:28:55;1.42;;;1.33;;
41829;SDS011;38614;43.472;23.936;2023-06-10T14:31:43;1.25;;;0.60;;
41829;SDS011;38614;43.472;23.936;2023-06-10T14:34:30;4.80;;;0.88;;
41829;SDS011;38614;43.472;23.936;2023-06-10T14:37:20;5.00;;;0.82;;
41829;SDS011;38614;43.472;23.936;2023-06-10T14:40:09;5.63;;;0.90;;
41829;SDS011;38614;43.472;23.936;2023-06-10T14:42:57;5.35;;;1.98;;
41829;SDS011;38614;43.472;23.936;2023-06-10T14:45:47;2.60;;;0.85;;
41829;SDS011;38614;43.472;23.936;2023-06-10T14:48:35;3.58;;;0.82;;
41829;SDS011;38614;43.472;23.936;2023-06-10T14:51:23;3.40;;;0.60;;
41829;SDS011;38614;43.472;23.936;2023-06-10T14:54:11;5.93;;;1.30;;
41829;SDS011;38614;43.472;23.936;2023-06-10T14:57:04;7.85;;;1.13;;
41829;SDS011;38614;43.472;23.936;2023-06-10T14:59:55;4.45;;;0.82;;
41829;SDS011;38614;43.472;23.936;2023-06-10T15:02:43;1.50;;;0.57;;
41829;SDS011;38614;43.472;23.936;2023-06-10T15:05:34;3.22;;;1.05;;
41829;SDS011;38614;43.472;23.936;2023-06-10T15:08:24;2.63;;;1.02;;
41829;SDS011;38614;43.472;23.936;2023-06-10T15:11:28;2.45;;;0.88;;
41829;SDS011;38614;43.472;23.936;2023-06-10T15:14:23;0.68;;;0.65;;
41829;SDS011;38614;43.472;23.936;2023-06-10T15:17:11;2.05;;;0.40;;
41829;SDS011;38614;43.472;23.936;2023-06-10T15:19:59;2.85;;;0.63;;
41829;SDS011;38614;43.472;23.936;2023-06-10T15:22:47;1.25;;;0.43;;
41829;SDS011;38614;43.472;23.936;2023-06-10T15:25:40;3.40;;;0.70;;
41829;SDS011;38614;43.472;23.936;2023-06-10T15:28:29;8.20;;;0.88;;
41829;SDS011;38614;43.472;23.936;2023-06-10T15:31:16;12.40;;;2.80;;
41829;SDS011;38614;43.472;23.936;2023-06-10T15:34:04;4.03;;;0.85;;
41829;SDS011;38614;43.472;23.936;2023-06-10T15:36:54;5.90;;;0.68;;
41829;SDS011;38614;43.472;23.936;2023-06-10T15:39:42;5.13;;;0.90;;
41829;SDS011;38614;43.472;23.936;2023-06-10T15:42:29;9.45;;;1.48;;
41829;SDS011;38614;43.472;23.936;2023-06-10T15:45:17;9.38;;;1.25;;
41829;SDS011;38614;43.472;23.936;2023-06-10T15:48:05;5.38;;;1.20;;
41829;SDS011;38614;43.472;23.936;2023-06-10T15:50:53;8.18;;;1.58;;
41829;SDS011;38614;43.472;23.936;2023-06-10T15:53:41;10.70;;;1.38;;
41829;SDS011;38614;43.472;23.936;2023-06-10T15:56:29;3.13;;;1.30;;
41829;SDS011;38614;43.472;23.936;2023-06-10T15:59:16;1.42;;;0.93;;
41829;SDS011;38614;43.472;23.936;2023-06-10T16:02:05;2.30;;;1.35;;
41829;SDS011;38614;43.472;23.936;2023-06-10T16:04:54;4.20;;;1.75;;
41829;SDS011;38614;43.472;23.936;2023-06-10T16:07:42;3.20;;;1.23;;
41829;SDS011;38614;43.472;23.936;2023-06-10T16:10:30;2.20;;;1.27;;
41829;SDS011;38614;43.472;23.936;2023-06-10T16:13:17;2.42;;;1.27;;
41829;SDS011;38614;43.472;23.936;2023-06-10T16:16:05;1.77;;;1.08;;
41829;SDS011;38614;43.472;23.936;2023-06-10T16:18:53;6.40;;;1.40;;
41829;SDS011;38614;43.472;23.936;2023-06-10T16:21:41;2.40;;;1.17;;
41829;SDS011;38614;43.472;23.936;2023-06-10T16:24:29;7.43;;;1.73;;
41829;SDS011;38614;43.472;23.936;2023-06-10T16:27:17;2.67;;;1.70;;
41829;SDS011;38614;43.472;23.936;2023-06-10T16:30:07;1.58;;;1.08;;
41829;SDS011;38614;43.472;23.936;2023-06-10T16:32:55;8.13;;;1.90;;
41829;SDS011;38614;43.472;23.936;2023-06-10T16:35:43;6.93;;;1.60;;
41829;SDS011;38614;43.472;23.936;2023-06-10T16:38:30;2.35;;;1.27;;
41829;SDS011;38614;43.472;23.936;2023-06-10T16:41:18;15.07;;;1.63;;
41829;SDS011;38614;43.472;23.936;2023-06-10T16:44:06;2.88;;;1.30;;
41829;SDS011;38614;43.472;23.936;2023-06-10T16:46:54;1.67;;;1.30;;
41829;SDS011;38614;43.472;23.936;2023-06-10T16:49:43;1.23;;;1.05;;
41829;SDS011;38614;43.472;23.936;2023-06-10T16:52:34;5.43;;;0.85;;
41829;SDS011;38614;43.472;23.936;2023-06-10T16:55:22;10.15;;;1.75;;
41829;SDS011;38614;43.472;23.936;2023-06-10T16:58:10;3.53;;;1.05;;